Terminal Aerodrome Forecast
Issued by NWS

Home | Current Version | Previous Version | Text Only | Print | Product List | Glossary On
Versions: 1 2 3 4 5 6 7 8 9 10 11 12 13 14 15
157
FTUS43 KMQT 021722
TAFIWD
TAF
KIWD 021722Z 0218/0318 34005KT P6SM SCT200
     FM030600 22003KT P6SM SKC
     FM031000 24007KT P6SM SCT200
     FM031400 25012G20KT P6SM VCSH BKN120
      AMD LTD TO VIS AND WIND=

USA.gov is the U.S. government's official web portal to all federal, state and local government web resources and services.